Time;durP1;ratioP1;P1;durP2;ratioP2;P2;SDS_P1;SDS_P2;PMS_P1;PMS_P2;Temp;Humidity;BMP_temperature;BMP_pressure;BME280_temperature;BME280_humidity;BME280_pressure;Samples;Min_cycle;Max_cycle;Signal;HPM_P1;HPM_P2
2022/11/12 00:02:10;;;;;;;15.73;9.30;;;7.90;99.90;;;;;;5014252;28;20900;-72
2022/11/12 00:04:36;;;;;;;15.70;9.77;;;7.80;99.90;;;;;;5014616;28;20754;-72
2022/11/12 00:07:02;;;;;;;16.00;9.53;;;7.80;99.90;;;;;;5014329;28;20435;-73
2022/11/12 00:09:27;;;;;;;15.10;9.80;;;7.80;99.90;;;;;;5014906;28;20503;-72
2022/11/12 00:11:53;;;;;;;14.53;9.53;;;7.80;99.90;;;;;;5020657;28;20389;-72
2022/11/12 00:14:18;;;;;;;16.33;10.27;;;7.70;99.90;;;;;;5016589;28;20487;-72
2022/11/12 00:16:44;;;;;;;18.63;9.33;;;7.80;99.90;;;;;;5014724;28;20409;-73
2022/11/12 00:19:09;;;;;;;17.80;10.43;;;7.70;99.90;;;;;;5014040;28;20384;-72
2022/11/12 00:21:35;;;;;;;17.93;9.60;;;7.70;99.90;;;;;;5013551;28;20383;-71
2022/11/12 00:24:00;;;;;;;16.33;10.00;;;7.60;99.90;;;;;;5013490;28;20381;-72
2022/11/12 00:26:26;;;;;;;19.05;10.63;;;7.60;99.90;;;;;;5012296;28;20571;-72
2022/11/12 00:28:51;;;;;;;22.03;10.67;;;7.60;99.90;;;;;;5013661;28;20773;-72
2022/11/12 00:31:17;;;;;;;15.73;10.30;;;7.60;99.90;;;;;;5013239;28;20447;-72
2022/11/12 00:33:43;;;;;;;16.60;10.00;;;7.60;99.90;;;;;;5013985;28;20455;-71
2022/11/12 00:36:09;;;;;;;17.25;10.63;;;7.60;99.90;;;;;;5013625;28;20428;-72
2022/11/12 00:38:35;;;;;;;14.75;10.38;;;7.70;99.90;;;;;;5013316;28;20404;-72
2022/11/12 00:41:01;;;;;;;16.90;11.20;;;7.70;99.90;;;;;;5013629;28;20395;-72
2022/11/12 00:43:27;;;;;;;19.38;11.10;;;7.70;99.90;;;;;;5013868;28;20389;-72
2022/11/12 00:45:52;;;;;;;18.25;11.10;;;7.70;99.90;;;;;;5013362;28;20397;-72
2022/11/12 00:48:18;;;;;;;17.98;10.80;;;7.70;99.90;;;;;;5013176;28;20392;-71
2022/11/12 00:50:44;;;;;;;17.10;11.10;;;7.60;99.90;;;;;;5012917;28;20424;-72
2022/11/12 00:53:09;;;;;;;16.97;10.67;;;7.70;99.90;;;;;;5012918;28;20431;-73
2022/11/12 00:55:35;;;;;;;18.90;10.23;;;7.60;99.90;;;;;;5013002;28;20404;-74
2022/11/12 00:58:00;;;;;;;18.80;10.40;;;7.60;99.90;;;;;;5013721;28;20389;-72
2022/11/12 01:00:26;;;;;;;19.10;11.07;;;7.60;99.90;;;;;;5013018;28;20525;-72
2022/11/12 01:02:51;;;;;;;19.63;11.10;;;7.60;99.90;;;;;;5012882;28;20753;-72
2022/11/12 01:05:18;;;;;;;15.33;10.40;;;7.50;99.90;;;;;;5012757;28;20405;-72
2022/11/12 01:07:44;;;;;;;15.13;9.95;;;7.50;99.90;;;;;;5012786;28;20439;-72
2022/11/12 01:10:12;;;;;;;17.58;10.63;;;7.50;99.90;;;;;;5012566;28;20385;-72
2022/11/12 01:12:38;;;;;;;16.02;10.30;;;7.60;99.90;;;;;;5012327;28;20400;-72
2022/11/12 01:15:05;;;;;;;17.65;10.30;;;7.60;99.90;;;;;;5013042;28;20443;-72
2022/11/12 01:17:31;;;;;;;18.20;10.20;;;7.60;99.90;;;;;;5012485;28;20483;-73
2022/11/12 01:19:57;;;;;;;14.93;10.15;;;7.50;99.90;;;;;;5012804;28;20818;-73
2022/11/12 01:22:22;;;;;;;15.23;10.67;;;7.50;99.90;;;;;;5012551;28;20472;-73
2022/11/12 01:24:48;;;;;;;18.33;10.63;;;7.50;99.90;;;;;;5012793;28;20477;-72
2022/11/12 01:27:13;;;;;;;15.33;10.37;;;7.60;99.90;;;;;;5012721;28;20392;-72
2022/11/12 01:29:39;;;;;;;16.43;10.37;;;7.50;99.90;;;;;;5012793;28;20393;-72
2022/11/12 01:32:05;;;;;;;16.58;9.82;;;7.50;99.90;;;;;;5012082;28;20893;-73
2022/11/12 01:34:31;;;;;;;12.93;10.00;;;7.50;99.90;;;;;;5012323;28;20392;-72
2022/11/12 01:36:57;;;;;;;15.82;9.60;;;7.50;99.90;;;;;;5012305;28;20392;-71
2022/11/12 01:39:22;;;;;;;17.25;9.55;;;7.40;99.90;;;;;;5011848;28;20845;-72
2022/11/12 01:41:48;;;;;;;17.13;9.30;;;7.40;99.90;;;;;;5011890;28;20492;-72
2022/11/12 01:44:16;;;;;;;14.07;8.90;;;7.40;99.90;;;;;;5011865;28;20757;-72
2022/11/12 01:46:56;;;;;;;14.68;9.35;;;7.50;99.90;;;;;;5011854;28;20381;-72
2022/11/12 01:49:45;;;;;;;16.90;9.20;;;7.40;99.90;;;;;;5011924;28;20738;-71
2022/11/12 01:52:25;;;;;;;13.40;9.00;;;7.40;99.90;;;;;;5011856;28;20520;-72
2022/11/12 01:54:55;;;;;;;12.70;8.55;;;7.40;99.90;;;;;;5012021;28;20444;-72
2022/11/12 01:57:29;;;;;;;12.52;8.95;;;7.30;99.90;;;;;;5011958;28;20758;-72
2022/11/12 02:00:00;;;;;;;13.00;8.43;;;7.20;99.90;;;;;;5012360;28;20723;-72
2022/11/12 02:02:27;;;;;;;13.60;8.95;;;7.20;99.90;;;;;;5014188;28;20415;-72
2022/11/12 02:04:54;;;;;;;14.32;8.95;;;7.20;99.90;;;;;;5016343;28;20408;-72
2022/11/12 02:07:22;;;;;;;13.07;8.90;;;7.10;99.90;;;;;;5015646;28;20393;-71
2022/11/12 02:09:47;;;;;;;12.85;8.55;;;7.10;99.90;;;;;;5016410;28;20746;-73
2022/11/12 02:13:56;;;;;;;15.03;8.27;;;7.00;99.90;;;;;;5013986;28;20392;-73
2022/11/12 02:14:58;;;;;;;13.07;9.20;;;7.00;99.90;;;;;;5015452;28;20485;-72
2022/11/12 02:17:24;;;;;;;15.47;8.70;;;7.00;99.90;;;;;;5013365;28;20459;-72
2022/11/12 02:19:51;;;;;;;14.60;8.67;;;7.00;99.90;;;;;;5011525;28;20391;-71
2022/11/12 02:22:17;;;;;;;12.63;8.52;;;6.90;99.90;;;;;;5011091;28;20384;-72
2022/11/12 02:24:43;;;;;;;11.80;8.80;;;6.90;99.90;;;;;;5011321;28;20405;-72
2022/11/12 02:27:10;;;;;;;14.83;9.27;;;6.90;99.90;;;;;;5011043;28;20385;-72
2022/11/12 02:29:45;;;;;;;12.95;8.40;;;6.90;99.90;;;;;;5011603;28;20480;-72
2022/11/12 02:32:13;;;;;;;13.52;8.30;;;7.00;99.90;;;;;;5017705;28;20412;-72
2022/11/12 02:34:39;;;;;;;14.30;8.32;;;6.90;99.90;;;;;;5015913;28;20909;-72
2022/11/12 02:37:05;;;;;;;14.40;8.70;;;7.00;99.90;;;;;;5011155;28;20527;-71
2022/11/12 02:39:31;;;;;;;15.40;8.65;;;7.00;99.90;;;;;;5011056;28;20486;-73
2022/11/12 02:41:57;;;;;;;14.17;8.17;;;7.10;99.90;;;;;;5010747;28;20874;-73
2022/11/12 02:44:22;;;;;;;10.00;7.43;;;7.10;99.90;;;;;;5010739;28;20805;-73
2022/11/12 02:46:48;;;;;;;10.97;8.10;;;7.00;99.90;;;;;;5010681;28;20742;-72
2022/11/12 02:49:14;;;;;;;12.13;7.90;;;7.10;99.90;;;;;;5010773;28;20838;-73
2022/11/12 02:51:39;;;;;;;13.80;8.23;;;7.00;99.90;;;;;;5010804;28;20380;-72
2022/11/12 02:54:05;;;;;;;11.60;7.70;;;7.00;99.90;;;;;;5010883;28;20427;-72
2022/11/12 02:56:30;;;;;;;14.00;8.17;;;7.10;99.90;;;;;;5010583;28;20389;-71
2022/11/12 02:58:56;;;;;;;10.33;7.70;;;7.10;99.90;;;;;;5010437;28;20393;-71
2022/11/12 03:01:21;;;;;;;12.80;8.13;;;7.10;99.90;;;;;;5010362;28;20768;-73
2022/11/12 03:03:47;;;;;;;13.37;7.87;;;7.10;99.90;;;;;;5010608;28;20877;-72
2022/11/12 03:06:13;;;;;;;10.20;7.90;;;7.10;99.90;;;;;;5010881;28;20428;-73
2022/11/12 03:08:38;;;;;;;13.97;8.23;;;7.10;99.90;;;;;;5010713;28;20385;-72
2022/11/12 03:11:09;;;;;;;16.83;8.00;;;7.10;99.90;;;;;;5009493;28;20423;-72
2022/11/12 03:13:35;;;;;;;11.80;8.00;;;7.10;99.90;;;;;;5010558;28;20476;-72
2022/11/12 03:16:01;;;;;;;12.57;7.97;;;7.00;99.90;;;;;;5010444;28;20384;-72
2022/11/12 03:18:26;;;;;;;12.67;7.97;;;7.00;99.90;;;;;;5009309;28;20485;-71
2022/11/12 03:20:52;;;;;;;11.67;7.60;;;7.00;99.90;;;;;;5010462;28;20919;-72
2022/11/12 03:23:18;;;;;;;11.40;8.17;;;7.00;99.90;;;;;;5011248;28;20526;-72
2022/11/12 03:25:43;;;;;;;11.87;8.00;;;6.90;99.90;;;;;;5014317;28;20810;-71
2022/11/12 03:28:12;;;;;;;18.80;8.40;;;6.90;99.90;;;;;;5014483;28;20389;-72
2022/11/12 03:30:39;;;;;;;14.57;8.00;;;6.90;99.90;;;;;;5014587;28;20829;-72
2022/11/12 03:33:07;;;;;;;14.30;8.30;;;6.90;99.90;;;;;;5014813;28;20395;-71
2022/11/12 03:35:33;;;;;;;9.40;7.70;;;6.90;99.90;;;;;;5014754;28;20399;-74
2022/11/12 03:37:59;;;;;;;13.15;8.32;;;6.90;99.90;;;;;;5015801;28;20396;-73
2022/11/12 03:40:25;;;;;;;11.20;7.40;;;6.90;99.90;;;;;;5015557;28;20908;-73
2022/11/12 03:42:51;;;;;;;15.05;8.20;;;6.90;99.90;;;;;;5014624;28;20392;-72
2022/11/12 03:45:20;;;;;;;13.57;7.95;;;6.80;99.90;;;;;;5014119;28;20415;-72
2022/11/12 03:47:54;;;;;;;16.50;7.88;;;6.80;99.90;;;;;;5013841;28;20385;-71
2022/11/12 03:50:22;;;;;;;14.55;7.80;;;6.70;99.90;;;;;;5013839;28;20377;-73
2022/11/12 03:52:52;;;;;;;10.10;7.78;;;6.70;99.90;;;;;;5013668;28;20396;-73
2022/11/12 03:55:19;;;;;;;10.65;7.70;;;6.70;99.90;;;;;;5014087;28;20385;-71
2022/11/12 03:57:49;;;;;;;9.95;7.55;;;6.70;99.90;;;;;;5013920;28;20487;-72
2022/11/12 04:00:15;;;;;;;15.30;8.32;;;6.60;99.90;;;;;;5013833;28;20395;-72
2022/11/12 04:02:41;;;;;;;10.15;7.88;;;6.60;99.90;;;;;;5013762;28;20432;-71
2022/11/12 04:10:45;;;;;;;15.18;8.50;;;6.50;99.90;;;;;;5015871;28;20439;-72
2022/11/12 04:22:02;;;;;;;12.65;7.82;;;6.40;99.90;;;;;;5023805;28;20399;-72
2022/11/12 04:27:17;;;;;;;14.05;8.00;;;6.30;99.90;;;;;;5021452;28;20564;-72
2022/11/12 04:32:30;;;;;;;12.57;7.60;;;6.30;99.90;;;;;;5015162;28;20380;-72
2022/11/12 04:34:56;;;;;;;9.93;7.28;;;6.30;99.90;;;;;;5015568;28;20387;-73
2022/11/12 04:37:24;;;;;;;11.70;7.00;;;6.30;99.90;;;;;;5018252;28;20406;-74
2022/11/12 04:39:51;;;;;;;14.48;7.90;;;6.30;99.90;;;;;;5018413;28;20955;-74
2022/11/12 04:45:03;;;;;;;10.82;7.30;;;6.30;99.90;;;;;;5014075;28;20593;-72
2022/11/12 04:47:32;;;;;;;12.75;7.82;;;6.30;99.90;;;;;;5013731;28;20429;-71
2022/11/12 04:49:58;;;;;;;12.68;8.00;;;6.30;99.90;;;;;;5015368;28;20440;-73
2022/11/12 04:52:25;;;;;;;11.00;7.70;;;6.30;99.90;;;;;;5016097;28;20483;-74
2022/11/12 04:54:51;;;;;;;13.30;7.60;;;6.30;99.90;;;;;;5014420;28;20447;-71
2022/11/12 04:57:16;;;;;;;10.20;7.72;;;6.30;99.90;;;;;;5013029;28;20385;-73
2022/11/12 04:59:42;;;;;;;11.90;8.03;;;6.30;99.90;;;;;;5013559;28;20447;-72
2022/11/12 05:02:07;;;;;;;10.33;7.30;;;6.30;99.90;;;;;;5012318;28;20431;-71
2022/11/12 05:04:33;;;;;;;10.00;7.30;;;6.40;99.90;;;;;;5013602;28;20491;-72
2022/11/12 05:07:00;;;;;;;12.47;7.90;;;6.30;99.90;;;;;;5018223;28;20396;-72
2022/11/12 05:09:27;;;;;;;12.05;7.35;;;6.30;99.90;;;;;;5032882;28;20405;-75
2022/11/12 05:11:56;;;;;;;15.20;7.53;;;6.30;99.90;;;;;;5030121;28;20768;-72
2022/11/12 05:14:23;;;;;;;10.00;7.30;;;6.30;99.90;;;;;;5014583;28;20393;-71
2022/11/12 05:16:50;;;;;;;11.18;7.80;;;6.30;99.90;;;;;;5013052;28;20391;-72
2022/11/12 05:19:15;;;;;;;11.15;7.80;;;6.20;99.90;;;;;;5013224;28;20392;-73
2022/11/12 05:24:25;;;;;;;13.00;8.07;;;6.20;99.90;;;;;;5014237;28;20421;-72
2022/11/12 05:26:52;;;;;;;12.27;8.23;;;6.20;99.90;;;;;;5015290;28;20401;-73
2022/11/12 05:29:18;;;;;;;12.23;8.73;;;6.20;99.90;;;;;;5023400;28;20395;-71
2022/11/12 05:31:44;;;;;;;13.95;8.60;;;6.20;99.90;;;;;;5030598;28;20384;-73
2022/11/12 05:34:10;;;;;;;10.15;7.97;;;6.30;99.90;;;;;;5032198;28;20510;-75
2022/11/12 05:36:36;;;;;;;10.50;7.85;;;6.20;99.90;;;;;;5030780;28;20392;-75
2022/11/12 05:39:01;;;;;;;14.30;7.97;;;6.20;99.90;;;;;;5023607;28;20400;-72
2022/11/12 05:41:27;;;;;;;13.13;7.70;;;6.20;99.90;;;;;;5016602;28;20475;-72
2022/11/12 05:43:53;;;;;;;10.50;8.03;;;6.20;99.90;;;;;;5012288;28;20482;-73
2022/11/12 05:46:18;;;;;;;15.40;7.70;;;6.10;99.90;;;;;;5011555;28;20460;-72
2022/11/12 05:48:44;;;;;;;12.15;7.82;;;6.10;99.90;;;;;;5012825;28;20389;-72
2022/11/12 05:51:12;;;;;;;14.85;8.27;;;6.10;99.90;;;;;;5012129;28;20758;-72
2022/11/12 05:53:38;;;;;;;12.93;8.57;;;6.10;99.90;;;;;;5012253;28;20388;-71
2022/11/12 05:56:05;;;;;;;16.05;8.35;;;6.10;99.90;;;;;;5011857;28;20384;-74
2022/11/12 05:58:31;;;;;;;12.20;8.45;;;6.10;99.90;;;;;;5011655;28;20400;-73
2022/11/12 06:00:57;;;;;;;10.87;8.50;;;6.20;99.90;;;;;;5011614;28;20880;-71
2022/11/12 06:03:23;;;;;;;12.57;7.95;;;6.20;99.90;;;;;;5011462;28;20388;-73
2022/11/12 06:05:49;;;;;;;13.00;8.07;;;6.10;99.90;;;;;;5011853;28;20548;-72
2022/11/12 06:08:14;;;;;;;10.60;8.15;;;6.10;99.90;;;;;;4994252;28;20765;-72
2022/11/12 06:10:40;;;;;;;14.77;8.38;;;6.10;99.90;;;;;;5011722;28;20932;-71
2022/11/12 06:13:06;;;;;;;13.75;8.15;;;6.00;99.90;;;;;;5011719;28;20443;-73
2022/11/12 06:15:32;;;;;;;10.00;8.00;;;6.00;99.90;;;;;;5020682;28;20409;-75
2022/11/12 06:17:57;;;;;;;11.40;8.33;;;6.00;99.90;;;;;;5016261;28;20389;-72
2022/11/12 06:20:23;;;;;;;15.13;9.00;;;5.90;99.90;;;;;;5011813;28;20480;-74
2022/11/12 06:22:49;;;;;;;14.93;8.82;;;5.90;99.90;;;;;;5011889;28;20881;-73
2022/11/12 06:25:16;;;;;;;16.38;9.07;;;5.80;99.90;;;;;;5011154;28;20428;-72
2022/11/12 06:27:42;;;;;;;13.60;8.82;;;5.90;99.90;;;;;;5011650;28;20389;-72
2022/11/12 06:30:08;;;;;;;18.10;8.80;;;5.90;99.90;;;;;;5011646;28;20381;-72
2022/11/12 06:32:34;;;;;;;15.48;8.88;;;5.90;99.90;;;;;;5011552;28;20377;-72
2022/11/12 06:35:00;;;;;;;13.80;8.85;;;5.80;99.90;;;;;;5011395;28;20965;-72
2022/11/12 06:37:26;;;;;;;11.37;8.17;;;5.70;99.90;;;;;;5011378;28;20389;-72
2022/11/12 06:39:51;;;;;;;17.15;9.55;;;5.80;99.90;;;;;;5010041;28;20400;-72
2022/11/12 06:42:17;;;;;;;13.20;8.13;;;5.80;99.90;;;;;;5011186;28;20876;-72
2022/11/12 06:44:43;;;;;;;13.55;9.07;;;5.80;99.90;;;;;;5011275;28;20413;-72
2022/11/12 06:47:09;;;;;;;12.50;8.63;;;5.70;99.90;;;;;;5011634;28;20385;-73
2022/11/12 06:49:34;;;;;;;16.02;9.50;;;5.80;99.90;;;;;;5011505;28;20749;-72
2022/11/12 06:52:00;;;;;;;14.15;9.00;;;5.70;99.90;;;;;;5010905;28;20393;-73
2022/11/12 06:54:26;;;;;;;13.63;8.85;;;5.70;99.90;;;;;;5011488;28;20434;-74
2022/11/12 06:56:51;;;;;;;13.43;9.00;;;5.70;99.90;;;;;;5012202;28;20461;-73
2022/11/12 06:59:17;;;;;;;13.87;8.70;;;5.90;99.90;;;;;;5028387;28;20384;-73
2022/11/12 07:01:43;;;;;;;12.87;9.00;;;5.90;99.90;;;;;;5031546;28;20416;-72
2022/11/12 07:04:09;;;;;;;14.90;10.20;;;5.90;99.90;;;;;;5020429;28;20424;-72
2022/11/12 07:06:35;;;;;;;13.80;9.20;;;5.90;99.90;;;;;;5016226;28;20440;-72
2022/11/12 07:09:02;;;;;;;17.13;9.55;;;5.90;99.90;;;;;;5015447;28;20849;-73
2022/11/12 07:11:27;;;;;;;18.60;9.57;;;5.90;99.90;;;;;;5016890;28;20389;-73
2022/11/12 07:13:53;;;;;;;17.95;10.30;;;6.00;99.90;;;;;;5015281;28;20388;-72
2022/11/12 07:16:18;;;;;;;14.57;9.55;;;6.00;99.90;;;;;;5015402;28;20471;-74
2022/11/12 07:18:46;;;;;;;14.45;9.35;;;6.10;99.90;;;;;;5015588;28;20377;-73
2022/11/12 07:21:17;;;;;;;14.52;9.65;;;6.10;99.90;;;;;;5014574;28;20420;-72
2022/11/12 07:23:43;;;;;;;16.33;9.70;;;6.10;99.90;;;;;;5014871;28;20392;-72
2022/11/12 07:26:21;;;;;;;17.00;9.88;;;6.20;99.90;;;;;;5014742;28;20423;-73
2022/11/12 07:28:49;;;;;;;16.58;9.85;;;6.20;99.90;;;;;;5014806;28;20529;-72
2022/11/12 07:31:16;;;;;;;32.83;18.77;;;6.30;99.90;;;;;;5016232;28;20438;-73
2022/11/12 07:33:42;;;;;;;16.63;9.30;;;6.40;99.90;;;;;;5020298;28;20475;-73
2022/11/12 07:36:10;;;;;;;17.70;9.27;;;6.40;99.90;;;;;;5020137;28;20389;-72
2022/11/12 07:38:39;;;;;;;16.17;10.18;;;6.50;99.90;;;;;;5018754;28;20408;-73
2022/11/12 07:41:13;;;;;;;16.15;9.80;;;6.50;99.90;;;;;;5018388;28;20472;-72
2022/11/12 07:43:39;;;;;;;14.73;9.60;;;6.60;99.90;;;;;;5018356;28;20383;-72
2022/11/12 07:46:10;;;;;;;18.73;10.52;;;6.70;99.90;;;;;;5015727;28;20396;-72
2022/11/12 07:48:36;;;;;;;17.40;10.07;;;6.80;99.90;;;;;;5015153;28;20773;-72
2022/11/12 07:51:12;;;;;;;18.55;10.23;;;6.80;99.90;;;;;;5013213;28;20381;-72
2022/11/12 07:53:39;;;;;;;19.05;10.13;;;6.90;99.90;;;;;;5014523;28;20399;-73
2022/11/12 07:56:05;;;;;;;15.18;8.88;;;6.90;99.90;;;;;;5014617;28;20719;-73
2022/11/12 07:58:32;;;;;;;15.68;9.40;;;7.00;99.90;;;;;;5014636;28;20480;-73
2022/11/12 08:01:24;;;;;;;16.08;8.50;;;7.10;99.90;;;;;;5014852;28;20399;-73
2022/11/12 08:03:50;;;;;;;13.18;8.60;;;7.20;99.90;;;;;;5014744;28;20398;-73
2022/11/12 08:06:15;;;;;;;13.60;8.10;;;7.30;98.80;;;;;;5014251;28;20404;-71
2022/11/12 08:08:41;;;;;;;12.03;7.67;;;7.50;98.60;;;;;;5013935;28;20467;-73
2022/11/12 08:11:08;;;;;;;15.50;8.30;;;7.50;94.40;;;;;;5014602;28;20385;-73
2022/11/12 08:13:33;;;;;;;12.80;7.97;;;7.50;92.20;;;;;;5015159;28;20388;-73
2022/11/12 08:15:59;;;;;;;12.30;7.43;;;7.50;92.60;;;;;;5014639;28;20388;-73
2022/11/12 08:18:25;;;;;;;13.75;8.32;;;7.60;90.00;;;;;;5014390;28;20389;-72
2022/11/12 08:20:51;;;;;;;12.03;8.27;;;7.70;90.10;;;;;;5014147;28;20461;-73
2022/11/12 08:23:17;;;;;;;12.70;7.90;;;7.80;87.70;;;;;;5012983;28;20551;-72
2022/11/12 08:25:42;;;;;;;16.00;8.55;;;8.00;85.90;;;;;;5013046;28;20409;-73
2022/11/12 08:28:08;;;;;;;13.90;8.00;;;8.10;82.70;;;;;;5014372;28;20851;-72
2022/11/12 08:30:34;;;;;;;10.30;7.00;;;8.20;79.50;;;;;;5014269;28;20746;-73
2022/11/12 08:33:02;;;;;;;15.70;8.00;;;8.30;80.10;;;;;;5014071;28;20403;-74
2022/11/12 08:35:29;;;;;;;13.38;7.80;;;8.40;80.70;;;;;;5017970;28;20432;-72
2022/11/12 08:38:03;;;;;;;10.35;7.38;;;8.40;78.10;;;;;;5015254;28;20781;-72
2022/11/12 08:40:30;;;;;;;8.82;6.82;;;8.40;77.00;;;;;;5014132;28;20392;-73
2022/11/12 08:43:01;;;;;;;10.85;7.35;;;8.50;76.80;;;;;;5014616;28;20385;-72
2022/11/12 08:45:27;;;;;;;11.40;7.30;;;8.50;74.80;;;;;;5015152;28;20409;-72
2022/11/12 08:48:04;;;;;;;10.68;7.40;;;8.60;76.30;;;;;;5014436;28;20944;-73
2022/11/12 08:50:30;;;;;;;12.10;7.03;;;8.70;74.70;;;;;;5014307;28;20373;-72
2022/11/12 08:53:03;;;;;;;14.17;7.10;;;8.90;71.80;;;;;;5014197;28;20475;-72
2022/11/12 08:55:31;;;;;;;10.90;6.70;;;9.00;71.80;;;;;;5013126;28;20389;-72
2022/11/12 08:58:00;;;;;;;10.60;6.75;;;9.30;67.80;;;;;;5014347;28;20829;-72
2022/11/12 09:00:27;;;;;;;10.18;6.55;;;10.10;62.00;;;;;;5013891;28;20400;-72
2022/11/12 09:02:53;;;;;;;9.27;5.57;;;11.00;52.40;;;;;;5015039;28;20397;-71
2022/11/12 09:05:19;;;;;;;9.90;6.20;;;11.70;46.00;;;;;;5014674;28;20411;-72
2022/11/12 09:07:44;;;;;;;8.70;6.10;;;12.00;41.50;;;;;;5014852;28;20385;-73
2022/11/12 09:10:10;;;;;;;8.90;5.73;;;11.80;40.90;;;;;;5015502;28;20491;-72
2022/11/12 09:12:35;;;;;;;9.30;6.00;;;11.50;42.80;;;;;;5014900;28;20396;-73
2022/11/12 09:15:01;;;;;;;11.03;6.00;;;11.20;44.50;;;;;;5016110;28;20430;-72
2022/11/12 09:17:28;;;;;;;11.50;6.43;;;10.90;46.70;;;;;;5016314;28;20404;-72
2022/11/12 09:19:53;;;;;;;9.60;5.60;;;10.80;48.70;;;;;;5018286;28;20389;-73
2022/11/12 09:22:19;;;;;;;8.15;6.15;;;10.70;48.20;;;;;;5016820;28;20396;-72
2022/11/12 09:24:45;;;;;;;9.80;6.70;;;10.70;48.10;;;;;;5015130;28;20405;-73
2022/11/12 09:27:10;;;;;;;10.35;7.10;;;10.70;48.60;;;;;;5019931;28;20381;-72
2022/11/12 09:29:36;;;;;;;11.77;6.30;;;10.80;49.30;;;;;;5025090;28;20413;-72
2022/11/12 09:32:01;;;;;;;12.20;6.70;;;10.80;51.30;;;;;;5029923;28;20381;-72
2022/11/12 09:34:27;;;;;;;10.35;6.30;;;10.90;50.80;;;;;;5026384;28;20388;-72
2022/11/12 09:36:54;;;;;;;9.20;6.20;;;10.90;49.20;;;;;;5017920;28;20377;-72
2022/11/12 09:39:20;;;;;;;10.57;6.10;;;11.00;48.30;;;;;;5012829;28;20813;-72
2022/11/12 09:41:45;;;;;;;9.85;5.97;;;11.10;48.80;;;;;;5013052;28;20413;-72
2022/11/12 09:44:20;;;;;;;14.50;6.38;;;11.10;48.10;;;;;;5013171;28;20491;-72
2022/11/12 09:47:03;;;;;;;9.40;5.85;;;11.30;47.80;;;;;;5012527;28;20416;-72
2022/11/12 09:49:39;;;;;;;10.60;6.55;;;11.40;47.00;;;;;;5012707;28;20806;-72
2022/11/12 09:52:21;;;;;;;12.02;6.50;;;11.50;48.40;;;;;;5013144;28;20889;-73
2022/11/12 09:54:53;;;;;;;11.38;6.10;;;11.60;45.30;;;;;;5012902;28;20428;-71
2022/11/12 09:57:19;;;;;;;10.70;6.03;;;11.80;44.90;;;;;;5012807;28;20874;-72
2022/11/12 09:59:44;;;;;;;10.60;5.73;;;11.80;43.60;;;;;;5012707;28;20392;-73
2022/11/12 10:02:39;;;;;;;8.13;5.60;;;11.90;44.40;;;;;;5012825;28;20388;-72
2022/11/12 10:05:30;;;;;;;7.57;5.20;;;11.90;44.90;;;;;;5013046;28;20404;-73
2022/11/12 10:08:10;;;;;;;9.07;5.80;;;12.00;42.70;;;;;;5013445;28;20907;-72
2022/11/12 10:10:45;;;;;;;7.85;5.57;;;12.20;40.80;;;;;;5013638;28;20450;-73
2022/11/12 10:13:44;;;;;;;39.45;7.63;;;12.30;40.70;;;;;;5011394;28;20392;-72
2022/11/12 10:16:41;;;;;;;10.60;5.43;;;12.40;40.50;;;;;;5011190;28;20385;-71
2022/11/12 10:19:51;;;;;;;7.28;5.00;;;12.50;39.60;;;;;;5012640;28;20731;-72
2022/11/12 10:22:39;;;;;;;10.25;5.00;;;12.60;40.80;;;;;;5008594;28;20416;-73
2022/11/12 10:25:16;;;;;;;7.97;5.10;;;12.70;40.30;;;;;;5011975;28;20405;-71
2022/11/12 10:27:42;;;;;;;7.80;4.90;;;12.70;39.80;;;;;;5011897;28;20543;-72
2022/11/12 10:30:20;;;;;;;8.25;5.00;;;12.70;40.10;;;;;;5011991;28;20384;-72
2022/11/12 10:32:47;;;;;;;7.93;5.00;;;12.80;38.90;;;;;;5011294;28;21001;-71
2022/11/12 10:35:19;;;;;;;9.70;5.30;;;12.90;38.70;;;;;;5012650;28;20396;-73
2022/11/12 10:38:01;;;;;;;6.97;5.00;;;13.00;38.50;;;;;;5011900;28;20408;-71
2022/11/12 10:40:39;;;;;;;9.40;5.45;;;13.10;37.60;;;;;;5011969;28;20383;-72
2022/11/12 10:43:08;;;;;;;9.50;5.38;;;13.10;38.00;;;;;;5011827;28;20385;-73
2022/11/12 10:45:33;;;;;;;6.00;4.60;;;13.10;39.00;;;;;;5011409;28;20417;-73
2022/11/12 10:47:59;;;;;;;7.83;5.40;;;13.30;39.10;;;;;;5011241;28;20898;-71
2022/11/12 10:50:33;;;;;;;7.87;4.77;;;13.30;39.50;;;;;;5011733;28;20472;-73
2022/11/12 10:53:04;;;;;;;8.75;4.40;;;13.40;38.70;;;;;;5011078;28;20399;-72
2022/11/12 10:55:33;;;;;;;8.40;5.30;;;13.50;37.60;;;;;;5011440;28;20728;-72
2022/11/12 10:58:08;;;;;;;8.00;4.80;;;13.50;37.70;;;;;;5012146;28;20560;-72
2022/11/12 11:00:35;;;;;;;8.30;5.28;;;13.60;37.70;;;;;;5011766;28;20875;-73
2022/11/12 11:03:21;;;;;;;9.98;5.88;;;13.60;36.60;;;;;;5012458;28;20393;-71
2022/11/12 11:06:16;;;;;;;9.32;5.70;;;13.60;37.00;;;;;;5010738;28;20444;-72
2022/11/12 11:08:47;;;;;;;9.52;5.30;;;13.70;36.40;;;;;;5012476;28;20464;-73
2022/11/12 11:11:18;;;;;;;10.20;6.05;;;13.80;36.70;;;;;;5011762;28;20392;-71
2022/11/12 11:13:46;;;;;;;13.57;7.93;;;13.90;37.30;;;;;;5012849;28;20419;-72
2022/11/12 11:16:21;;;;;;;12.20;7.13;;;13.90;37.80;;;;;;5012628;28;20870;-72
2022/11/12 11:18:51;;;;;;;11.18;6.95;;;14.10;36.70;;;;;;5011754;28;20388;-73
2022/11/12 11:21:29;;;;;;;9.30;6.70;;;14.10;36.80;;;;;;5012182;28;20401;-73
2022/11/12 11:23:54;;;;;;;9.80;6.57;;;14.20;36.20;;;;;;5011843;28;20960;-71
2022/11/12 11:26:37;;;;;;;13.38;9.50;;;14.20;36.00;;;;;;5011636;28;20492;-73
2022/11/12 11:29:30;;;;;;;11.93;7.57;;;14.30;36.20;;;;;;5011923;28;20873;-73
2022/11/12 11:32:14;;;;;;;11.15;7.30;;;14.40;35.50;;;;;;5015683;28;20385;-73
2022/11/12 11:35:11;;;;;;;7.20;5.95;;;14.50;35.80;;;;;;5015924;28;20423;-73
2022/11/12 11:38:11;;;;;;;10.05;6.50;;;14.50;35.30;;;;;;5011074;28;20401;-72
2022/11/12 11:40:42;;;;;;;8.05;6.05;;;14.50;34.90;;;;;;5008110;28;20462;-73
2022/11/12 11:43:41;;;;;;;13.50;6.43;;;14.60;35.10;;;;;;5011809;28;20381;-73
2022/11/12 11:46:24;;;;;;;11.40;6.10;;;14.70;35.10;;;;;;5008620;28;20775;-73
2022/11/12 11:49:24;;;;;;;12.48;6.63;;;14.80;35.10;;;;;;4995360;28;20486;-73
2022/11/12 11:52:31;;;;;;;12.35;5.60;;;14.90;35.50;;;;;;5001627;28;20875;-73
2022/11/12 11:55:21;;;;;;;8.73;5.82;;;15.10;33.40;;;;;;5016084;28;20396;-72
2022/11/12 11:58:11;;;;;;;9.13;5.70;;;15.10;33.60;;;;;;5013897;28;20764;-72
2022/11/12 12:01:08;;;;;;;9.75;5.95;;;15.20;33.40;;;;;;4997072;28;20390;-72
2022/11/12 12:04:04;;;;;;;11.25;5.53;;;15.20;33.30;;;;;;4994659;28;20398;-73
2022/11/12 12:06:37;;;;;;;9.67;5.10;;;15.20;31.40;;;;;;5014373;28;20781;-71
2022/11/12 12:09:27;;;;;;;7.03;4.60;;;15.20;31.90;;;;;;5021234;28;20452;-71
2022/11/12 12:11:58;;;;;;;9.15;5.05;;;15.30;31.10;;;;;;5033746;28;20412;-72
2022/11/12 12:14:50;;;;;;;6.10;5.20;;;15.30;31.30;;;;;;5032971;28;20388;-73
2022/11/12 12:17:21;;;;;;;7.73;5.20;;;15.40;30.50;;;;;;5032943;28;20383;-72
2022/11/12 12:19:55;;;;;;;9.07;5.30;;;15.40;30.60;;;;;;5032782;28;20485;-72
2022/11/12 12:22:44;;;;;;;8.20;4.90;;;15.40;30.70;;;;;;5017599;28;20400;-72
2022/11/12 12:25:15;;;;;;;11.40;5.55;;;15.40;30.80;;;;;;5014402;28;20793;-72
2022/11/12 12:27:54;;;;;;;10.23;5.80;;;15.40;31.50;;;;;;5014760;28;20885;-71
2022/11/12 12:30:23;;;;;;;12.40;6.57;;;15.40;31.60;;;;;;5014052;28;20380;-73
2022/11/12 12:32:52;;;;;;;10.57;5.40;;;15.40;32.00;;;;;;5014241;28;20399;-72
2022/11/12 12:35:35;;;;;;;7.60;5.13;;;15.50;30.30;;;;;;5014344;28;20471;-71
2022/11/12 12:38:27;;;;;;;8.02;5.07;;;15.50;30.10;;;;;;5014061;28;20778;-72
2022/11/12 12:41:31;;;;;;;8.00;5.45;;;15.40;30.00;;;;;;5013993;28;20487;-71
2022/11/12 12:44:02;;;;;;;7.53;4.40;;;15.40;29.90;;;;;;5011928;28;20463;-72
2022/11/12 12:46:31;;;;;;;10.90;5.10;;;15.40;29.80;;;;;;5014315;28;20615;-73
2022/11/12 12:48:59;;;;;;;8.67;4.90;;;15.30;30.30;;;;;;5014351;28;20381;-72
2022/11/12 12:51:29;;;;;;;7.28;4.72;;;15.30;30.60;;;;;;5014943;28;20559;-72
2022/11/12 12:53:54;;;;;;;8.98;4.60;;;15.30;30.40;;;;;;5014782;28;20395;-72
2022/11/12 12:56:23;;;;;;;11.88;4.28;;;15.30;30.60;;;;;;5013118;28;20467;-72
2022/11/12 12:58:49;;;;;;;9.88;4.45;;;15.30;30.60;;;;;;5013564;28;20396;-73
2022/11/12 13:01:23;;;;;;;8.88;5.05;;;15.40;30.60;;;;;;5013415;28;20396;-71
2022/11/12 13:04:02;;;;;;;7.00;4.65;;;15.40;31.10;;;;;;5014058;28;20427;-72
2022/11/12 13:06:51;;;;;;;6.60;4.68;;;15.40;31.20;;;;;;5013004;28;20933;-71
2022/11/12 13:09:16;;;;;;;11.80;5.40;;;15.40;30.90;;;;;;5014153;28;21057;-72
2022/11/12 13:14:49;;;;;;;8.03;4.40;;;15.70;31.00;;;;;;5015558;28;20381;-72
2022/11/12 13:17:45;;;;;;;11.07;7.05;;;15.70;30.60;;;;;;5016160;28;20394;-72
2022/11/12 13:20:13;;;;;;;7.97;4.70;;;15.80;30.90;;;;;;5017271;28;20388;-72
2022/11/12 13:22:39;;;;;;;8.05;4.80;;;15.80;30.00;;;;;;5015866;28;20817;-73
2022/11/12 13:25:07;;;;;;;8.10;5.40;;;15.70;29.50;;;;;;5014310;28;20408;-72
2022/11/12 13:27:39;;;;;;;9.88;5.70;;;15.90;30.00;;;;;;5015632;28;20731;-72
2022/11/12 13:30:17;;;;;;;19.77;5.63;;;15.80;30.10;;;;;;5021262;28;20466;-72